Time;durP1;ratioP1;P1;durP2;ratioP2;P2;SDS_P1;SDS_P2;PMS_P1;PMS_P2;Temp;Humidity;BMP_temperature;BMP_pressure;BME280_temperature;BME280_humidity;BME280_pressure;Samples;Min_cycle;Max_cycle;Signal;HPM_P1;HPM_P2
2022/11/11 00:01:46;;;;;;;;;;;;;;;20.66;49.55;102510.22;5130068;28;19950;-32
2022/11/11 00:04:12;;;;;;;;;;;;;;;20.67;49.80;102529.31;5129172;27;20170;-32
2022/11/11 00:06:37;;;;;;;;;;;;;;;20.67;49.64;102543.16;5129751;28;19923;-32
2022/11/11 00:09:03;;;;;;;;;;;;;;;20.68;49.63;102557.84;5130535;28;19930;-32
2022/11/11 00:11:29;;;;;;;;;;;;;;;20.67;49.63;102547.88;5131004;28;19969;-32
2022/11/11 00:13:54;;;;;;;;;;;;;;;20.67;49.56;102558.94;5129652;28;19950;-32
2022/11/11 00:16:20;;;;;;;;;;;;;;;20.66;49.46;102555.34;5127920;28;19924;-32
2022/11/11 00:27:05;;;;;;;;;;;;;;;20.66;49.44;102562.81;5111581;28;19923;-32
2022/11/11 00:29:31;;;;;;;;;;;;;;;20.66;49.83;102549.81;5123017;28;20014;-32
2022/11/11 00:32:30;;;;;;;;;;;;;;;20.66;49.57;102547.03;5128756;28;20317;-32
2022/11/11 00:35:51;;;;;;;;;;;;;;;20.66;49.54;102543.44;5112585;28;20452;-32
2022/11/11 00:37:27;;;;;;;;;;;;;;;20.66;49.60;102538.72;5108336;28;20055;-32
2022/11/11 00:39:53;;;;;;;;;;;;;;;20.66;49.55;102532.34;5127853;28;19935;-32
2022/11/11 00:42:19;;;;;;;;;;;;;;;20.67;49.59;102534.03;5125176;27;19923;-32
2022/11/11 00:44:44;;;;;;;;;;;;;;;20.65;49.56;102531.53;5127292;27;20363;-32
2022/11/11 00:52:43;;;;;;;;;;;;;;;20.65;49.72;102539.81;5108681;28;19923;-32
2022/11/11 00:55:09;;;;;;;;;;;;;;;20.65;49.54;102534.28;5110565;28;19933;-32
2022/11/11 00:57:34;;;;;;;;;;;;;;;20.65;49.49;102536.22;5129140;28;19923;-32
2022/11/11 01:00:00;;;;;;;;;;;;;;;20.66;49.50;102540.66;5128759;28;19924;-32
2022/11/11 01:02:26;;;;;;;;;;;;;;;20.66;49.72;102548.97;5128581;28;19931;-32
2022/11/11 01:04:51;;;;;;;;;;;;;;;20.64;49.58;102557.53;5129383;28;19932;-33
2022/11/11 01:07:17;;;;;;;;;;;;;;;20.64;49.65;102560.31;5128589;28;19927;-32
2022/11/11 01:09:43;;;;;;;;;;;;;;;20.64;49.37;102571.38;5129201;28;19930;-32
2022/11/11 01:12:08;;;;;;;;;;;;;;;20.64;49.62;102571.38;5128543;28;19927;-32
2022/11/11 01:14:34;;;;;;;;;;;;;;;20.65;49.41;102578.59;5127626;28;20290;-33
2022/11/11 01:16:59;;;;;;;;;;;;;;;20.64;49.55;102570.50;5128261;27;19927;-32
2022/11/11 01:19:25;;;;;;;;;;;;;;;20.65;49.63;102572.22;5128148;28;20260;-32
2022/11/11 01:21:51;;;;;;;;;;;;;;;20.64;49.42;102568.59;5129169;28;20329;-32
2022/11/11 01:24:16;;;;;;;;;;;;;;;20.64;49.58;102571.38;5126717;28;19931;-32
2022/11/11 01:26:42;;;;;;;;;;;;;;;20.64;49.55;102571.38;5126040;28;19927;-32
2022/11/11 01:29:08;;;;;;;;;;;;;;;20.64;49.55;102571.38;5129197;28;20380;-32
2022/11/11 01:31:33;;;;;;;;;;;;;;;20.65;49.44;102569.44;5127663;28;19930;-32
2022/11/11 01:33:59;;;;;;;;;;;;;;;20.65;49.63;102566.69;5128278;28;19931;-32
2022/11/11 01:36:26;;;;;;;;;;;;;;;20.64;49.47;102560.31;5126474;28;19923;-32
2022/11/11 01:38:52;;;;;;;;;;;;;;;20.64;49.71;102568.59;5128196;28;19959;-32
2022/11/11 01:41:51;;;;;;;;;;;;;;;20.64;49.66;102564.97;5110109;27;20367;-32
2022/11/11 01:44:16;;;;;;;;;;;;;;;20.63;49.58;102566.91;5098889;28;20446;-32
2022/11/11 01:46:43;;;;;;;;;;;;;;;20.63;49.53;102572.44;5128887;27;19936;-32
2022/11/11 01:51:53;;;;;;;;;;;;;;;20.63;49.40;102575.22;5164966;27;20289;-37
2022/11/11 01:54:20;;;;;;;;;;;;;;;20.63;49.51;102575.22;5162436;27;20011;-38
2022/11/11 01:56:48;;;;;;;;;;;;;;;20.62;49.55;102575.47;5148806;27;19956;-38
2022/11/11 01:59:16;;;;;;;;;;;;;;;20.63;49.54;102577.16;5143639;27;19983;-37
2022/11/11 02:01:41;;;;;;;;;;;;;;;20.64;49.59;102573.28;5137029;27;20000;-38
2022/11/11 02:06:55;;;;;;;;;;;;;;;20.63;49.50;102569.69;5149116;27;19924;-39
2022/11/11 02:09:20;;;;;;;;;;;;;;;20.63;49.65;102577.16;5142486;27;19930;-39
2022/11/11 02:14:35;;;;;;;;;;;;;;;20.62;49.40;102572.69;5137336;27;20386;-39
2022/11/11 02:17:01;;;;;;;;;;;;;;;20.62;49.50;102565.22;5145310;27;19931;-38
2022/11/11 02:19:31;;;;;;;;;;;;;;;20.62;49.37;102569.94;5142352;27;19927;-38
2022/11/11 02:21:58;;;;;;;;;;;;;;;20.64;49.46;102564.97;5144321;27;19924;-39
2022/11/11 02:24:24;;;;;;;;;;;;;;;20.62;49.33;102562.47;5142572;27;19947;-39
2022/11/11 02:26:49;;;;;;;;;;;;;;;20.62;49.38;102561.63;5143927;27;20280;-39
2022/11/11 02:29:22;;;;;;;;;;;;;;;20.62;49.55;102561.63;5140714;27;19939;-36
2022/11/11 02:31:47;;;;;;;;;;;;;;;20.61;49.32;102571.03;5145802;27;19931;-39
2022/11/11 02:34:13;;;;;;;;;;;;;;;20.63;49.50;102566.06;5136623;27;19930;-38
2022/11/11 02:36:39;;;;;;;;;;;;;;;20.61;49.44;102566.34;5138557;27;19962;-39
2022/11/11 02:39:04;;;;;;;;;;;;;;;20.61;49.40;102563.56;5145630;27;19923;-38
2022/11/11 02:42:08;;;;;;;;;;;;;;;20.61;49.58;102557.19;5141128;27;19941;-39
2022/11/11 02:44:15;;;;;;;;;;;;;;;20.61;49.42;102558.03;5142801;27;20017;-37
2022/11/11 02:46:41;;;;;;;;;;;;;;;20.62;49.40;102559.69;5151749;27;19927;-38
2022/11/11 02:49:07;;;;;;;;;;;;;;;20.62;49.41;102564.41;5139405;27;19924;-37
2022/11/11 02:51:32;;;;;;;;;;;;;;;20.62;49.51;102564.41;5141757;27;19923;-39
2022/11/11 02:53:58;;;;;;;;;;;;;;;20.61;49.52;102558.03;5143063;27;19979;-40
2022/11/11 02:59:10;;;;;;;;;;;;;;;20.60;49.51;102574.91;5143811;27;19931;-38
2022/11/11 03:01:36;;;;;;;;;;;;;;;20.61;49.53;102574.63;5144596;27;19928;-37
2022/11/11 03:04:02;;;;;;;;;;;;;;;20.60;49.48;102575.75;5127796;27;20299;-39
2022/11/11 03:06:27;;;;;;;;;;;;;;;20.60;49.65;102572.97;5134092;27;20298;-38
2022/11/11 03:08:53;;;;;;;;;;;;;;;20.62;49.65;102569.94;5129786;27;19927;-38
2022/11/11 03:11:26;;;;;;;;;;;;;;;20.61;49.60;102559.97;5128560;27;20390;-39
2022/11/11 03:13:53;;;;;;;;;;;;;;;20.61;49.50;102560.78;5128547;27;19932;-39
2022/11/11 03:19:04;;;;;;;;;;;;;;;20.60;49.40;102559.13;5130485;27;19923;-39
2022/11/11 03:21:30;;;;;;;;;;;;;;;20.60;49.14;102566.59;5127721;27;20279;-39
2022/11/11 03:24:15;;;;;;;;;;;;;;;20.60;49.49;102563.81;5130532;27;20311;-38
2022/11/11 03:26:41;;;;;;;;;;;;;;;20.60;49.44;102561.91;5126961;27;19924;-39
2022/11/11 03:29:06;;;;;;;;;;;;;;;20.60;49.40;102561.91;5130932;27;19923;-39
2022/11/11 03:31:32;;;;;;;;;;;;;;;20.59;49.45;102562.97;5132482;27;19936;-38
2022/11/11 03:34:16;;;;;;;;;;;;;;;20.60;49.45;102567.44;5129039;27;20385;-38
2022/11/11 03:39:28;;;;;;;;;;;;;;;20.61;49.44;102562.72;5128182;27;19978;-39
2022/11/11 03:41:56;;;;;;;;;;;;;;;20.59;49.59;102554.66;5131865;27;19998;-39
2022/11/11 03:44:21;;;;;;;;;;;;;;;20.60;49.61;102550.81;5121673;27;19973;-38
2022/11/11 03:46:47;;;;;;;;;;;;;;;20.59;49.46;102551.06;5125411;27;19923;-38
2022/11/11 03:49:12;;;;;;;;;;;;;;;20.60;49.36;102552.75;5123226;27;19931;-39
2022/11/11 03:51:38;;;;;;;;;;;;;;;20.59;49.48;102554.66;5124293;27;19929;-38
2022/11/11 03:54:03;;;;;;;;;;;;;;;20.60;49.42;102552.75;5129321;27;19930;-38
2022/11/11 03:56:29;;;;;;;;;;;;;;;20.60;49.60;102555.53;5128694;27;19939;-39
2022/11/11 03:58:54;;;;;;;;;;;;;;;20.60;49.48;102547.22;5127480;27;20367;-38
2022/11/11 04:12:23;;;;;;;;;;;;;;;20.58;49.54;102555.75;5128179;27;19962;-37
2022/11/11 04:17:34;;;;;;;;;;;;;;;20.58;49.26;102561.28;5133160;27;19959;-39
2022/11/11 04:22:45;;;;;;;;;;;;;;;20.59;49.44;102573.19;5127022;27;20002;-39
2022/11/11 04:30:42;;;;;;;;;;;;;;;20.59;49.49;102574.03;5127108;27;19975;-38
2022/11/11 04:33:07;;;;;;;;;;;;;;;20.57;49.31;102559.63;5122308;27;19931;-37
2022/11/11 04:35:33;;;;;;;;;;;;;;;20.58;49.41;102568.75;5125189;27;19923;-39
2022/11/11 04:41:15;;;;;;;;;;;;;;;20.57;49.56;102565.16;5126446;27;19970;-38
2022/11/11 04:43:30;;;;;;;;;;;;;;;20.58;49.45;102577.91;5119629;27;19928;-39
2022/11/11 04:45:59;;;;;;;;;;;;;;;20.57;49.53;102573.47;5134714;27;19942;-39
2022/11/11 04:48:24;;;;;;;;;;;;;;;20.58;49.50;102571.53;5122860;27;19969;-39
2022/11/11 04:50:50;;;;;;;;;;;;;;;20.57;49.42;102573.47;5124132;27;19923;-39
2022/11/11 04:53:15;;;;;;;;;;;;;;;20.58;49.62;102577.06;5133075;27;20363;-38
2022/11/11 04:58:29;;;;;;;;;;;;;;;20.59;49.54;102581.50;5112852;27;19962;-39
2022/11/11 05:00:55;;;;;;;;;;;;;;;20.58;49.50;102574.28;5128674;27;19948;-39
2022/11/11 05:03:23;;;;;;;;;;;;;;;20.57;49.38;102578.16;5123078;27;19923;-39
2022/11/11 05:09:09;;;;;;;;;;;;;;;20.57;49.45;102567.91;5114885;27;19954;-39
2022/11/11 05:11:25;;;;;;;;;;;;;;;20.57;49.33;102561.56;5125330;27;19924;-39
2022/11/11 05:22:17;;;;;;;;;;;;;;;20.56;49.43;102555.19;5124528;27;19959;-38
2022/11/11 05:27:29;;;;;;;;;;;;;;;20.56;49.37;102562.66;5114981;27;20804;-38
2022/11/11 05:29:54;;;;;;;;;;;;;;;20.57;49.29;102559.63;5122316;27;19944;-38
2022/11/11 05:32:21;;;;;;;;;;;;;;;20.57;49.33;102562.38;5121875;27;19924;-39
2022/11/11 05:34:46;;;;;;;;;;;;;;;20.57;49.40;102572.63;5127250;27;19959;-38
2022/11/11 05:37:12;;;;;;;;;;;;;;;20.56;49.36;102582.84;5128319;27;19923;-38
2022/11/11 05:39:38;;;;;;;;;;;;;;;20.57;49.39;102580.94;5127535;27;20306;-37
2022/11/11 05:42:03;;;;;;;;;;;;;;;20.57;49.37;102584.53;5127088;27;19923;-38
2022/11/11 05:44:29;;;;;;;;;;;;;;;20.56;49.54;102591.16;5123380;27;19931;-39
2022/11/11 05:46:54;;;;;;;;;;;;;;;20.56;49.59;102593.94;5125305;27;19931;-38
2022/11/11 05:49:20;;;;;;;;;;;;;;;20.57;49.47;102600.31;5125208;27;19931;-39
2022/11/11 05:51:46;;;;;;;;;;;;;;;20.56;49.33;102599.47;5127167;27;19932;-39
2022/11/11 05:54:12;;;;;;;;;;;;;;;20.55;49.56;102592.22;5125020;27;19928;-38
2022/11/11 05:56:37;;;;;;;;;;;;;;;20.56;49.42;102590.31;5123700;27;19931;-38
2022/11/11 05:59:03;;;;;;;;;;;;;;;20.56;49.59;102591.16;5123067;27;19953;-39
2022/11/11 06:01:29;;;;;;;;;;;;;;;20.56;49.43;102593.09;5125834;27;19924;-38
2022/11/11 06:03:54;;;;;;;;;;;;;;;20.55;49.52;102606.06;5139870;27;19923;-38
2022/11/11 06:06:20;;;;;;;;;;;;;;;20.56;49.43;102598.63;5127550;27;19931;-38
2022/11/11 06:08:45;;;;;;;;;;;;;;;20.57;49.26;102608.59;5120254;27;19923;-38
2022/11/11 06:11:11;;;;;;;;;;;;;;;20.55;49.48;102611.59;5118223;27;19924;-38
2022/11/11 06:13:36;;;;;;;;;;;;;;;20.56;49.53;102613.31;5121704;27;20359;-38
2022/11/11 06:16:02;;;;;;;;;;;;;;;20.56;49.37;102610.53;5127699;27;20027;-38
2022/11/11 06:18:28;;;;;;;;;;;;;;;20.55;49.52;102606.06;5122010;27;20429;-38
2022/11/11 06:20:57;;;;;;;;;;;;;;;20.56;49.46;102612.47;5121316;27;20014;-38
2022/11/11 06:23:23;;;;;;;;;;;;;;;20.56;49.39;102609.69;5123676;27;20298;-39
2022/11/11 06:26:20;;;;;;;;;;;;;;;20.56;49.58;102615.25;5126249;27;19960;-37
2022/11/11 06:28:34;;;;;;;;;;;;;;;20.55;49.48;102619.91;5123446;27;19923;-39
2022/11/11 06:31:00;;;;;;;;;;;;;;;20.55;49.46;102619.91;5126115;27;20290;-37
2022/11/11 06:33:26;;;;;;;;;;;;;;;20.54;49.58;102615.47;5126204;27;19923;-38
2022/11/11 06:35:52;;;;;;;;;;;;;;;20.54;49.36;102618.22;5124039;27;20445;-39
2022/11/11 06:38:18;;;;;;;;;;;;;;;20.54;49.50;102615.47;5123027;27;20146;-38
2022/11/11 06:40:43;;;;;;;;;;;;;;;20.54;49.40;102621.00;5124257;27;20038;-37
2022/11/11 06:43:09;;;;;;;;;;;;;;;20.55;49.36;102622.69;5131432;27;19960;-36
2022/11/11 06:45:35;;;;;;;;;;;;;;;20.55;49.36;102619.91;5123133;27;19924;-39
2022/11/11 06:48:02;;;;;;;;;;;;;;;20.54;49.38;102630.13;5128692;27;19927;-39
2022/11/11 06:50:28;;;;;;;;;;;;;;;20.53;49.46;102631.25;5122962;27;19948;-37
2022/11/11 06:52:54;;;;;;;;;;;;;;;20.53;49.41;102631.25;5126550;27;19969;-39
2022/11/11 06:55:20;;;;;;;;;;;;;;;20.53;49.40;102647.00;5116990;27;19927;-38
2022/11/11 06:57:45;;;;;;;;;;;;;;;20.54;49.55;102643.16;5124152;27;20283;-38
2022/11/11 07:00:11;;;;;;;;;;;;;;;20.43;49.90;102646.81;5126830;27;19927;-40
2022/11/11 07:02:37;;;;;;;;;;;;;;;20.37;50.74;102651.38;5115086;27;19928;-39
2022/11/11 07:05:02;;;;;;;;;;;;;;;20.49;50.16;102649.44;5122142;27;19923;-39
2022/11/11 07:07:28;;;;;;;;;;;;;;;20.53;49.97;102653.38;5122261;27;20016;-39
2022/11/11 07:09:54;;;;;;;;;;;;;;;20.55;49.81;102658.66;5125693;27;19932;-39
2022/11/11 07:12:20;;;;;;;;;;;;;;;20.55;49.77;102664.19;5121137;27;20018;-40
2022/11/11 07:14:46;;;;;;;;;;;;;;;20.54;49.68;102656.97;5119764;27;20449;-39
2022/11/11 07:17:11;;;;;;;;;;;;;;;20.56;49.70;102662.28;5128607;27;19939;-39
2022/11/11 07:19:37;;;;;;;;;;;;;;;20.56;49.88;102663.13;5120420;27;19939;-39
2022/11/11 07:22:02;;;;;;;;;;;;;;;20.57;49.69;102667.56;5119242;27;19923;-40
2022/11/11 07:24:28;;;;;;;;;;;;;;;20.58;49.41;102665.63;5119623;27;20534;-39
2022/11/11 07:26:53;;;;;;;;;;;;;;;20.57;49.87;102662.03;5107333;27;19928;-39
2022/11/11 07:29:19;;;;;;;;;;;;;;;20.57;49.26;102670.34;5117922;27;19931;-38
2022/11/11 07:31:44;;;;;;;;;;;;;;;20.57;48.54;102672.28;5101977;27;19947;-39
2022/11/11 07:34:10;;;;;;;;;;;;;;;20.56;47.85;102676.13;5097604;27;19935;-39
2022/11/11 07:36:36;;;;;;;;;;;;;;;20.57;48.88;102673.09;5104372;27;19931;-37
2022/11/11 07:39:01;;;;;;;;;;;;;;;20.58;49.52;102676.72;5112396;27;19927;-35
2022/11/11 07:41:34;;;;;;;;;;;;;;;20.58;49.70;102674.78;5096841;27;19932;-37
2022/11/11 07:43:59;;;;;;;;;;;;;;;20.59;48.60;102675.63;5106846;27;19942;-37
2022/11/11 07:46:25;;;;;;;;;;;;;;;20.59;48.05;102678.38;5112629;27;20779;-38
2022/11/11 07:48:50;;;;;;;;;;;;;;;20.59;48.25;102679.22;5110462;27;19930;-38
2022/11/11 07:51:16;;;;;;;;;;;;;;;20.58;47.90;102683.09;5112405;27;19927;-39
2022/11/11 07:53:41;;;;;;;;;;;;;;;20.59;48.25;102686.69;5115036;27;20348;-38
2022/11/11 07:56:07;;;;;;;;;;;;;;;20.60;48.89;102685.63;5112260;27;19932;-39
2022/11/11 07:58:32;;;;;;;;;;;;;;;20.60;47.78;102696.69;5107647;27;19932;-39
2022/11/11 08:00:58;;;;;;;;;;;;;;;20.60;48.12;102694.75;5115787;27;19927;-38
2022/11/11 08:03:29;;;;;;;;;;;;;;;20.61;48.57;102695.59;5115926;27;20188;-39
2022/11/11 08:05:55;;;;;;;;;;;;;;;20.61;48.57;102698.38;5123874;27;19923;-37
2022/11/11 08:08:24;;;;;;;;;;;;;;;20.61;49.24;102701.13;5117414;27;19924;-39
2022/11/11 08:10:52;;;;;;;;;;;;;;;20.61;47.44;102703.91;5114910;27;19934;-39
2022/11/11 08:13:50;;;;;;;;;;;;;;;20.61;47.70;102710.28;5117627;27;19955;-39
2022/11/11 08:16:05;;;;;;;;;;;;;;;20.60;47.87;102703.06;5118739;27;20456;-39
2022/11/11 08:18:31;;;;;;;;;;;;;;;20.61;48.85;102699.19;5119646;27;19985;-38
2022/11/11 08:20:57;;;;;;;;;;;;;;;20.60;48.07;102697.53;5117430;27;19924;-38
2022/11/11 08:23:31;;;;;;;;;;;;;;;20.61;47.58;102698.38;5120300;27;19932;-39
2022/11/11 08:26:17;;;;;;;;;;;;;;;20.61;48.56;102707.50;5110483;27;19927;-38
2022/11/11 08:28:43;;;;;;;;;;;;;;;20.60;49.07;102703.06;5112261;27;20490;-39
2022/11/11 08:31:09;;;;;;;;;;;;;;;20.61;48.50;102703.91;5115413;27;19934;-39
2022/11/11 08:33:34;;;;;;;;;;;;;;;20.61;48.38;102695.59;5115908;27;20026;-39
2022/11/11 08:36:01;;;;;;;;;;;;;;;20.62;49.24;102700.03;5116140;27;19943;-39
2022/11/11 08:38:26;;;;;;;;;;;;;;;20.60;48.23;102702.22;5109919;27;19931;-38
2022/11/11 08:40:52;;;;;;;;;;;;;;;20.61;48.70;102707.50;5111980;27;20034;-38
2022/11/11 08:43:18;;;;;;;;;;;;;;;20.61;47.96;102704.75;5098153;27;19938;-38
2022/11/11 08:45:43;;;;;;;;;;;;;;;20.59;48.05;102700.53;5105280;27;19927;-39
2022/11/11 08:48:09;;;;;;;;;;;;;;;20.60;48.01;102697.53;5114180;27;19931;-39
2022/11/11 08:50:37;;;;;;;;;;;;;;;20.59;48.01;102706.91;5112482;27;19923;-37
2022/11/11 08:53:03;;;;;;;;;;;;;;;20.61;49.28;102709.44;5112119;27;20406;-39
2022/11/11 08:55:29;;;;;;;;;;;;;;;20.60;48.52;102702.22;5117552;27;19932;-39
2022/11/11 08:57:56;;;;;;;;;;;;;;;20.60;47.46;102705.84;5116264;27;19932;-39
2022/11/11 09:00:22;;;;;;;;;;;;;;;20.61;49.09;102706.66;5112216;27;19982;-37
2022/11/11 09:02:48;;;;;;;;;;;;;;;20.60;48.30;102703.06;5251761;22;19978;-93
2022/11/11 09:05:23;;;;;;;;;;;;;;;20.60;48.06;102702.22;5057047;28;20381;-93
2022/11/11 09:08:06;;;;;;;;;;;;;;;20.59;48.01;102706.06;5066504;28;19934;-94
2022/11/11 09:10:50;;;;;;;;;;;;;;;20.60;48.31;102708.59;5058699;28;19928;-94
2022/11/11 09:13:32;;;;;;;;;;;;;;;20.59;47.80;102711.59;5055756;28;19929;-94
2022/11/11 09:16:16;;;;;;;;;;;;;;;20.60;49.15;102716.91;5060608;28;19928;-94
2022/11/11 09:18:56;;;;;;;;;;;;;;;20.60;48.33;102713.31;5070266;28;20280;-94
2022/11/11 09:21:36;;;;;;;;;;;;;;;20.61;49.13;102709.44;5088555;22;19968;-33
2022/11/11 09:24:02;;;;;;;;;;;;;;;20.60;49.18;102707.75;5075443;28;19943;-33
2022/11/11 09:26:27;;;;;;;;;;;;;;;20.60;48.29;102708.59;5080716;28;19928;-32
2022/11/11 09:28:53;;;;;;;;;;;;;;;20.59;48.14;102700.53;5079063;28;19939;-32
2022/11/11 09:31:19;;;;;;;;;;;;;;;20.59;47.94;102708.84;5083371;28;19931;-32
2022/11/11 09:34:05;;;;;;;;;;;;;;;20.58;47.71;102710.75;5069705;28;19932;-33
2022/11/11 09:36:31;;;;;;;;;;;;;;;20.60;47.66;102716.06;5078243;28;19998;-33
2022/11/11 09:38:57;;;;;;;;;;;;;;;20.59;47.48;102717.13;5065510;28;20395;-33
2022/11/11 09:41:27;;;;;;;;;;;;;;;20.58;47.40;102715.47;5079578;28;19928;-32
2022/11/11 09:43:54;;;;;;;;;;;;;;;20.58;47.30;102712.69;5058343;28;19956;-32
2022/11/11 09:46:23;;;;;;;;;;;;;;;20.58;47.48;102716.28;5060573;28;20019;-33
2022/11/11 09:48:56;;;;;;;;;;;;;;;20.58;47.01;102721.00;5070498;28;19976;-32
2022/11/11 09:51:23;;;;;;;;;;;;;;;20.58;47.06;102715.47;5069391;28;20034;-32
2022/11/11 09:53:51;;;;;;;;;;;;;;;20.58;47.13;102719.06;5052950;28;19932;-32
2022/11/11 09:56:18;;;;;;;;;;;;;;;20.57;47.26;102717.41;5065255;28;20125;-32
2022/11/11 09:59:00;;;;;;;;;;;;;;;20.58;47.29;102721.84;5074577;28;19932;-33
2022/11/11 10:01:26;;;;;;;;;;;;;;;20.59;48.84;102725.44;5072026;28;20941;-33
2022/11/11 10:04:01;;;;;;;;;;;;;;;20.57;48.78;102720.16;5075619;28;20695;-32
2022/11/11 10:06:27;;;;;;;;;;;;;;;20.58;47.78;102723.75;5093838;28;20683;-33
2022/11/11 10:09:01;;;;;;;;;;;;;;;20.59;49.01;102725.44;5077020;28;19989;-33
2022/11/11 10:11:46;;;;;;;;;;;;;;;20.58;48.99;102726.53;5093908;28;19985;-33
2022/11/11 10:14:12;;;;;;;;;;;;;;;20.58;47.68;102718.22;5083619;28;20382;-32
2022/11/11 10:16:54;;;;;;;;;;;;;;;20.57;47.42;102722.94;5100535;28;19928;-33
2022/11/11 10:19:29;;;;;;;;;;;;;;;20.57;47.57;102725.69;5103274;28;20030;-32
2022/11/11 10:21:58;;;;;;;;;;;;;;;20.57;47.51;102724.84;5079323;28;20011;-33
2022/11/11 10:24:40;;;;;;;;;;;;;;;20.57;48.85;102725.69;5082891;28;19973;-32
2022/11/11 10:27:13;;;;;;;;;;;;;;;20.56;47.73;102728.72;5078906;28;19977;-33
2022/11/11 10:29:39;;;;;;;;;;;;;;;20.56;48.23;102729.56;5079763;28;19963;-32
2022/11/11 10:32:10;;;;;;;;;;;;;;;20.56;48.77;102724.03;5075246;28;20226;-32
2022/11/11 10:34:36;;;;;;;;;;;;;;;20.57;48.80;102727.63;5095514;28;19931;-32
2022/11/11 10:37:02;;;;;;;;;;;;;;;20.57;48.72;102733.16;5092250;28;20280;-33
2022/11/11 10:39:32;;;;;;;;;;;;;;;20.57;48.51;102731.22;5079898;28;19969;-33
2022/11/11 10:41:57;;;;;;;;;;;;;;;20.57;47.91;102733.16;5099414;28;19963;-33
2022/11/11 10:44:25;;;;;;;;;;;;;;;20.56;47.63;102726.78;5094021;28;20799;-32
2022/11/11 10:47:00;;;;;;;;;;;;;;;20.56;48.89;102726.78;5078571;28;19985;-32
2022/11/11 10:49:26;;;;;;;;;;;;;;;20.57;49.17;102720.16;5099977;28;20018;-32
2022/11/11 10:51:55;;;;;;;;;;;;;;;20.56;48.63;102735.09;5081688;28;19953;-33
2022/11/11 10:54:25;;;;;;;;;;;;;;;20.56;47.74;102735.09;5088234;28;19968;-33
2022/11/11 10:56:55;;;;;;;;;;;;;;;20.55;47.74;102736.16;5097061;28;20354;-32
2022/11/11 10:59:23;;;;;;;;;;;;;;;20.57;48.76;102733.16;5092814;28;20015;-33
2022/11/11 11:01:51;;;;;;;;;;;;;;;20.58;49.07;102732.06;5095799;28;19971;-33
2022/11/11 11:04:20;;;;;;;;;;;;;;;20.56;48.82;102735.09;5076002;28;19967;-32
2022/11/11 11:06:45;;;;;;;;;;;;;;;20.56;48.27;102735.09;5090549;28;20066;-32
2022/11/11 11:09:13;;;;;;;;;;;;;;;20.57;48.85;102727.63;5099416;28;19955;-33
2022/11/11 11:11:41;;;;;;;;;;;;;;;20.57;49.06;102741.47;5097701;28;19979;-32
2022/11/11 11:14:09;;;;;;;;;;;;;;;20.57;48.92;102733.16;5099147;28;19928;-32
2022/11/11 11:16:36;;;;;;;;;;;;;;;20.56;48.68;102739.78;5083123;28;19963;-33
2022/11/11 11:19:17;;;;;;;;;;;;;;;20.56;48.74;102737.88;5100379;28;19970;-33
2022/11/11 11:21:51;;;;;;;;;;;;;;;20.57;49.05;102734.00;5080067;28;20437;-33
2022/11/11 11:24:32;;;;;;;;;;;;;;;20.57;47.73;102739.53;5075994;28;20505;-32
2022/11/11 11:26:59;;;;;;;;;;;;;;;20.56;48.06;102729.56;5099171;28;19971;-32
2022/11/11 11:29:25;;;;;;;;;;;;;;;20.56;47.58;102739.78;5080222;28;19987;-33
2022/11/11 11:31:51;;;;;;;;;;;;;;;20.55;47.37;102733.38;5076927;28;20601;-35
2022/11/11 11:34:17;;;;;;;;;;;;;;;20.56;48.53;102737.03;5079633;28;20008;-36
2022/11/11 11:36:42;;;;;;;;;;;;;;;20.55;47.93;102738.94;5094802;28;19932;-32
2022/11/11 11:39:08;;;;;;;;;;;;;;;20.56;48.84;102737.88;5099849;28;20389;-33
2022/11/11 11:41:42;;;;;;;;;;;;;;;20.56;48.27;102742.56;5100789;28;20279;-32
2022/11/11 11:44:27;;;;;;;;;;;;;;;20.55;48.76;102727.84;5090756;28;20034;-33
2022/11/11 11:46:54;;;;;;;;;;;;;;;20.56;47.88;102725.97;5077692;28;19974;-33
2022/11/11 11:49:26;;;;;;;;;;;;;;;20.56;47.78;102723.19;5081337;28;20624;-33
2022/11/11 11:51:56;;;;;;;;;;;;;;;20.56;48.92;102723.19;5100111;28;20030;-32
2022/11/11 11:54:25;;;;;;;;;;;;;;;20.55;48.67;102711.25;5081706;28;20030;-32
2022/11/11 11:56:51;;;;;;;;;;;;;;;20.53;47.79;102714.28;5099516;28;20260;-32
2022/11/11 11:59:22;;;;;;;;;;;;;;;20.54;48.10;102717.88;5100703;28;20318;-32
2022/11/11 12:01:53;;;;;;;;;;;;;;;20.53;47.67;102708.75;5080593;28;19970;-32
2022/11/11 12:04:33;;;;;;;;;;;;;;;20.54;48.03;102706.81;5093093;28;19935;-33
2022/11/11 12:07:19;;;;;;;;;;;;;;;20.53;47.81;102702.38;5074885;28;20162;-33
2022/11/11 12:10:04;;;;;;;;;;;;;;;20.52;47.70;102700.69;5082074;28;20086;-33
2022/11/11 12:12:34;;;;;;;;;;;;;;;20.55;48.17;102700.19;5067581;28;20388;-32
2022/11/11 12:15:05;;;;;;;;;;;;;;;20.53;47.95;102703.19;5088680;28;19967;-32
2022/11/11 12:17:33;;;;;;;;;;;;;;;20.53;47.86;102694.91;5076611;28;20519;-32
2022/11/11 12:20:02;;;;;;;;;;;;;;;20.53;47.98;102699.59;5097937;28;19967;-32
2022/11/11 12:22:33;;;;;;;;;;;;;;;20.53;47.87;102694.06;5094029;28;20017;-32
2022/11/11 12:25:11;;;;;;;;;;;;;;;20.53;48.84;102680.22;5093766;28;19978;-32
2022/11/11 12:27:38;;;;;;;;;;;;;;;20.36;46.83;102679.31;5077064;28;19987;-33
2022/11/11 12:30:13;;;;;;;;;;;;;;;20.49;47.87;102676.28;5096819;28;19962;-35
2022/11/11 12:35:23;;;;;;;;;;;;;;;20.55;48.56;102669.72;5163792;27;19925;-38
2022/11/11 12:40:48;;;;;;;;;;;;;;;20.57;48.59;102669.50;5161844;27;19929;-38
2022/11/11 12:43:17;;;;;;;;;;;;;;;20.57;48.63;102664.81;5149475;27;20417;-38
2022/11/11 12:45:46;;;;;;;;;;;;;;;20.57;48.80;102664.81;5162254;27;20090;-37
2022/11/11 12:48:30;;;;;;;;;;;;;;;20.58;48.71;102660.94;5139555;27;19970;-38
2022/11/11 12:51:01;;;;;;;;;;;;;;;20.58;48.86;102658.16;5152920;27;20329;-38
2022/11/11 12:53:34;;;;;;;;;;;;;;;20.57;47.70;102663.97;5161753;27;19934;-40
2022/11/11 12:56:03;;;;;;;;;;;;;;;20.49;46.45;102659.66;5143382;27;20365;-38
2022/11/11 12:58:39;;;;;;;;;;;;;;;20.26;43.17;102658.66;5156518;27;20030;-41
2022/11/11 13:01:17;;;;;;;;;;;;;;;20.42;45.61;102657.03;5164736;27;19938;-39
2022/11/11 13:04:03;;;;;;;;;;;;;;;20.51;46.79;102651.97;5136068;27;19931;-38
2022/11/11 13:06:37;;;;;;;;;;;;;;;20.53;47.39;102647.00;5135051;27;20430;-38
2022/11/11 13:09:08;;;;;;;;;;;;;;;20.56;47.45;102652.06;5149347;27;20251;-37
2022/11/11 13:11:53;;;;;;;;;;;;;;;20.56;47.31;102643.75;5143683;27;19923;-39
2022/11/11 13:14:37;;;;;;;;;;;;;;;20.57;46.00;102641.81;5145826;27;19931;-39
2022/11/11 13:17:03;;;;;;;;;;;;;;;20.58;45.77;102640.72;5143292;27;20019;-39
2022/11/11 13:19:39;;;;;;;;;;;;;;;20.58;45.78;102641.56;5122924;27;21591;-38
2022/11/11 13:22:07;;;;;;;;;;;;;;;20.57;45.29;102653.72;5128997;27;19993;-37
2022/11/11 13:24:32;;;;;;;;;;;;;;;20.59;45.21;102657.06;5150285;27;19962;-39
2022/11/11 13:27:00;;;;;;;;;;;;;;;20.59;46.25;102650.69;5145892;27;19923;-38
2022/11/11 13:29:34;;;;;;;;;;;;;;;20.59;45.89;102659.84;5130125;27;19954;-39
2022/11/11 13:32:00;;;;;;;;;;;;;;;20.60;45.45;102653.25;5145707;27;19924;-40
2022/11/11 13:34:25;;;;;;;;;;;;;;;20.60;45.80;102646.88;5141189;27;19968;-39
2022/11/11 13:36:51;;;;;;;;;;;;;;;20.60;45.52;102650.47;5139934;27;20279;-39
2022/11/11 13:39:21;;;;;;;;;;;;;;;20.61;45.98;102648.53;5142806;27;19923;-39
2022/11/11 13:41:48;;;;;;;;;;;;;;;20.60;45.86;102650.47;5146401;27;19980;-39
2022/11/11 13:44:17;;;;;;;;;;;;;;;20.60;45.72;102642.16;5132495;27;20374;-39
2022/11/11 13:46:43;;;;;;;;;;;;;;;20.61;45.38;102640.22;5148374;27;19923;-39
2022/11/11 13:49:35;;;;;;;;;;;;;;;20.59;45.39;102643.22;5125063;27;20113;-38
2022/11/11 13:52:01;;;;;;;;;;;;;;;20.61;45.75;102646.59;5115107;27;19965;-38
2022/11/11 13:54:34;;;;;;;;;;;;;;;20.62;45.70;102642.75;5132403;27;19984;-37
2022/11/11 13:57:20;;;;;;;;;;;;;;;20.62;45.86;102648.28;5128335;27;19990;-40
2022/11/11 13:59:56;;;;;;;;;;;;;;;20.62;45.66;102642.75;5125902;27;20283;-39
2022/11/11 14:02:25;;;;;;;;;;;;;;;20.64;46.13;102646.13;5141218;27;19985;-40